Flight Information

DEPARTURE
SAN LUIS OBISPO, CA
Elevation:
212
Runways:
7/25 - 2500x100 - ASPH-G
11/29 - 6101x150 - ASPH-G
ATIS:
120.6
Ground:
121.6
Tower:
124
DESTINATION
SANTA BARBARA, CA
Elevation:
13
TPA:
1013 (est.)
Runways:
7/25 - 6052x150 - ASPH-G
15R/33L - 4184x100 - ASPH-G
15L/33R - 4180x75 - ASPH-G
ATIS:
132.65
Tower:
119.7
Ground:
121.7


62.6 NM141° True-14° Var126° HDG

Flight Plan:
(click to file on line)

1. Type
2. Aircraft Identification
3. Aircraft Type / Special Equipment
4. True Airspeed
kts
5. Departure Airport
(ICAO code)
6. Arriving Airport
(ICAO code)
7. Cruising Altitude
ft
8. Alternate Airport
(ICAO code)
9. Route of Flight
10. Remarks


00:00:00 Departure ATIS: Destination ATIS:

Clearance Limit:
Route:
Altitude: Expect in minutes
Frequency:
Transponder: (7500 Hijack / 7600 Lost Comms / 7700 Emergency)


KSBP 261356Z 24004KT 2SM BR OVC002 12/11 A3000 RMK AO2 SLP158 T01170111 $
Time: 2022-06-26T13:56:00Z
1656252245
Winds: 240 @ 4 kts
Visibility: 2.0 sm
Clouds (AGL): OVC 200
Temperature: 11.7 C
Dew Point: 11.1 C
Pressure: 30.0 in Hgbr

KSBA 261353Z 16003KT 5SM R07/5000VP6000FT BR OVC004 15/14 A2997 RMK AO2 SLP148 T01500139 $
Time: 2022-06-26T13:53:00Z
1656252245
Winds: 160 @ 3 kts
Visibility: 5.0 sm
Clouds (AGL): OVC 400
Temperature: 15.0 C
Dew Point: 13.9 C
Pressure: 29.970472 in Hgbr


Notes:

Data extracted from FAA Digital Chart Supplement. Effective: 0901Z Thursday, 27 JAN 2022 to 0900z Thursday, 24 MAR 2022
Current ATIS data is provided courtisy of PilotEdge.